Time;durP1;ratioP1;P1;durP2;ratioP2;P2;SDS_P1;SDS_P2;PMS_P1;PMS_P2;Temp;Humidity;BMP_temperature;BMP_pressure;BME280_temperature;BME280_humidity;BME280_pressure;Samples;Min_cycle;Max_cycle;Signal;HPM_P1;HPM_P2
2023/08/28 00:01:00;;;;;;;2.20;1.23;;;;;;;;;;5042000;28;20645;-85
2023/08/28 00:03:26;;;;;;;1.80;1.13;;;;;;;;;;5040310;28;20037;-84
2023/08/28 00:05:52;;;;;;;8.32;0.95;;;;;;;;;;5039931;28;20410;-85
2023/08/28 00:08:18;;;;;;;2.88;1.30;;;;;;;;;;5041485;28;20124;-84
2023/08/28 00:10:44;;;;;;;3.10;0.90;;;;;;;;;;5022044;28;20036;-85
2023/08/28 00:13:09;;;;;;;5.50;0.98;;;;;;;;;;5042115;28;20112;-85
2023/08/28 00:15:35;;;;;;;3.15;1.63;;;;;;;;;;5040453;28;20104;-84
2023/08/28 00:18:01;;;;;;;2.13;1.20;;;;;;;;;;5036334;28;20032;-83
2023/08/28 00:20:27;;;;;;;5.00;1.38;;;;;;;;;;5034745;28;20037;-85
2023/08/28 00:22:53;;;;;;;1.67;0.90;;;;;;;;;;5039711;28;20025;-87
2023/08/28 00:25:19;;;;;;;2.03;0.93;;;;;;;;;;5037590;28;20032;-85
2023/08/28 00:27:46;;;;;;;1.92;0.90;;;;;;;;;;5038721;28;20033;-84
2023/08/28 00:30:12;;;;;;;2.15;0.88;;;;;;;;;;5038614;28;20076;-84
2023/08/28 00:32:38;;;;;;;8.88;1.50;;;;;;;;;;5038833;28;20128;-86
2023/08/28 00:35:05;;;;;;;9.57;1.30;;;;;;;;;;5039124;28;20028;-84
2023/08/28 00:37:31;;;;;;;4.85;0.88;;;;;;;;;;5040857;28;20039;-84
2023/08/28 00:39:57;;;;;;;3.60;1.48;;;;;;;;;;5031591;28;20033;-85
2023/08/28 00:42:23;;;;;;;1.48;0.77;;;;;;;;;;5038437;28;20116;-85
2023/08/28 00:44:49;;;;;;;5.53;1.42;;;;;;;;;;5041930;28;20084;-83
2023/08/28 00:47:15;;;;;;;2.60;0.98;;;;;;;;;;5038771;28;20487;-83
2023/08/28 00:49:41;;;;;;;5.13;1.90;;;;;;;;;;5039497;28;20029;-83
2023/08/28 00:52:08;;;;;;;2.65;1.20;;;;;;;;;;5041838;28;20562;-83
2023/08/28 00:54:34;;;;;;;2.83;1.20;;;;;;;;;;5041936;28;20032;-85
2023/08/28 00:57:00;;;;;;;6.05;1.58;;;;;;;;;;5038959;28;20024;-84
2023/08/28 00:59:27;;;;;;;11.23;2.63;;;;;;;;;;5039030;28;20041;-82
2023/08/28 01:01:54;;;;;;;3.13;1.55;;;;;;;;;;5035897;28;20132;-85
2023/08/28 01:04:20;;;;;;;3.53;1.33;;;;;;;;;;5044100;28;20035;-81
2023/08/28 01:07:10;;;;;;;5.25;1.50;;;14.40;99.90;;;;;;5049236;28;20100;-85
2023/08/28 01:10:09;;;;;;;3.97;1.40;;;14.30;99.90;;;;;;5043201;28;20033;-85
2023/08/28 01:12:51;;;;;;;2.80;1.48;;;14.40;99.90;;;;;;5044368;28;20032;-82
2023/08/28 01:15:20;;;;;;;2.38;1.30;;;14.20;99.90;;;;;;5037588;28;20056;-84
2023/08/28 01:17:47;;;;;;;4.10;1.75;;;;;;;;;;5040808;28;20768;-83
2023/08/28 01:20:15;;;;;;;3.05;1.40;;;;;;;;;;5025438;28;20110;-86
2023/08/28 01:23:02;;;;;;;4.22;1.67;;;;;;;;;;5031024;28;20104;-85
2023/08/28 01:25:31;;;;;;;3.63;1.48;;;;;;;;;;5024383;28;20056;-85
2023/08/28 01:27:58;;;;;;;5.72;1.77;;;;;;;;;;5039209;28;20037;-83
2023/08/28 01:30:24;;;;;;;4.57;1.73;;;;;;;;;;5037475;28;20482;-87
2023/08/28 01:32:50;;;;;;;4.00;1.70;;;;;;;;;;5034029;28;20033;-87
2023/08/28 01:35:19;;;;;;;4.40;1.52;;;;;;;;;;5035093;28;20048;-86
2023/08/28 01:37:54;;;;;;;2.95;1.40;;;;;;;;;;5032577;28;20033;-86
2023/08/28 01:40:24;;;;;;;1.63;1.23;;;;;;;;;;5031860;28;20049;-84
2023/08/28 01:42:50;;;;;;;3.90;1.52;;;;;;;;;;5034584;28;20021;-86
2023/08/28 01:45:16;;;;;;;3.08;1.50;;;;;;;;;;5036412;28;20032;-84
2023/08/28 01:47:42;;;;;;;2.90;1.60;;;;;;;;;;5039818;28;20176;-85
2023/08/28 01:50:08;;;;;;;3.42;1.42;;;;;;;;;;5020222;28;20037;-84
2023/08/28 01:52:34;;;;;;;2.72;1.60;;;;;;;;;;5038807;28;20029;-85
2023/08/28 01:55:00;;;;;;;4.30;1.30;;;;;;;;;;5041024;28;20021;-85
2023/08/28 01:57:26;;;;;;;2.55;1.13;;;;;;;;;;5040978;28;20570;-86
2023/08/28 01:59:52;;;;;;;3.90;1.73;;;;;;;;;;5041946;28;20033;-82
2023/08/28 02:02:18;;;;;;;1.95;0.93;;;;;;;;;;5037448;28;20059;-83
2023/08/28 02:04:44;;;;;;;2.08;1.20;;;;;;;;;;5041616;28;20048;-86
2023/08/28 02:07:10;;;;;;;2.45;1.23;;;;;;;;;;5042318;28;20060;-86
2023/08/28 02:09:36;;;;;;;1.55;0.90;;;;;;;;;;5039134;28;20025;-84
2023/08/28 02:12:02;;;;;;;3.00;1.35;;;;;;;;;;5017889;28;20052;-84
2023/08/28 02:14:28;;;;;;;2.35;1.20;;;;;;;;;;5041812;28;20040;-84
2023/08/28 02:16:54;;;;;;;2.53;1.63;;;;;;;;;;5035630;28;20060;-85
2023/08/28 02:19:20;;;;;;;2.60;1.42;;;;;;;;;;5038446;28;20108;-85
2023/08/28 02:21:46;;;;;;;4.80;1.48;;;;;;;;;;5034806;28;20650;-85
2023/08/28 02:24:12;;;;;;;4.47;2.25;;;;;;;;;;5024568;28;20665;-86
2023/08/28 02:26:38;;;;;;;3.92;1.90;;;;;;;;;;5043322;28;20037;-86
2023/08/28 02:29:05;;;;;;;4.57;2.13;;;;;;;;;;5040241;28;20530;-86
2023/08/28 02:31:30;;;;;;;3.45;1.85;;;;;;;;;;5037789;28;20020;-87
2023/08/28 02:33:56;;;;;;;4.45;2.60;;;;;;;;;;5038929;28;20260;-86
2023/08/28 02:36:22;;;;;;;3.35;1.92;;;;;;;;;;5039575;28;20052;-84
2023/08/28 02:38:48;;;;;;;4.35;2.10;;;;;;;;;;5042658;28;20196;-84
2023/08/28 02:41:14;;;;;;;3.08;1.17;;;;;;;;;;5042538;28;20033;-83
2023/08/28 02:43:40;;;;;;;2.58;1.58;;;;;;;;;;5045409;28;20032;-84
2023/08/28 02:46:06;;;;;;;3.75;1.48;;;;;;;;;;5046948;28;20079;-84
2023/08/28 02:48:32;;;;;;;3.50;1.77;;;;;;;;;;5038147;28;20026;-84
2023/08/28 02:50:58;;;;;;;2.95;1.95;;;;;;;;;;5044221;28;20037;-85
2023/08/28 02:53:24;;;;;;;5.45;2.03;;;;;;;;;;5046641;28;20059;-85
2023/08/28 02:56:09;;;;;;;2.95;1.50;;;14.80;99.90;;;;;;5044159;28;20037;-85
2023/08/28 02:58:35;;;;;;;4.60;2.00;;;;;;;;;;5045744;28;20514;-85
2023/08/28 03:01:02;;;;;;;6.30;1.83;;;;;;;;;;5044438;28;20048;-85
2023/08/28 03:03:28;;;;;;;5.13;2.20;;;;;;;;;;5042579;28;20056;-85
2023/08/28 03:05:54;;;;;;;6.22;2.03;;;;;;;;;;5047860;28;20219;-87
2023/08/28 03:08:21;;;;;;;3.92;2.28;;;;;;;;;;5067508;28;20033;-87
2023/08/28 03:10:47;;;;;;;4.88;1.98;;;;;;;;;;5062675;28;20068;-85
2023/08/28 03:13:13;;;;;;;4.47;2.38;;;;;;;;;;5060593;28;20040;-84
2023/08/28 03:15:38;;;;;;;2.90;1.83;;;;;;;;;;5038815;28;20032;-85
2023/08/28 03:18:05;;;;;;;2.97;1.30;;;;;;;;;;5024516;28;20041;-84
2023/08/28 03:20:32;;;;;;;4.15;1.75;;;;;;;;;;5059187;28;20714;-86
2023/08/28 03:22:58;;;;;;;5.80;1.60;;;;;;;;;;5058893;28;20029;-86
2023/08/28 03:25:24;;;;;;;2.90;1.70;;;;;;;;;;5054007;28;20365;-83
2023/08/28 03:27:50;;;;;;;5.55;2.28;;;;;;;;;;5044913;28;20032;-83
2023/08/28 03:30:16;;;;;;;3.20;1.52;;;;;;;;;;5045771;28;20116;-85
2023/08/28 03:32:42;;;;;;;4.78;2.40;;;;;;;;;;5046721;28;20549;-84
2023/08/28 03:35:08;;;;;;;13.20;2.38;;;;;;;;;;5045599;28;20671;-84
2023/08/28 03:37:34;;;;;;;8.10;2.60;;;;;;;;;;5045098;28;20028;-85
2023/08/28 03:40:00;;;;;;;4.80;2.40;;;;;;;;;;5029405;28;20499;-85
2023/08/28 03:42:26;;;;;;;4.35;2.38;;;;;;;;;;5044729;28;20446;-87
2023/08/28 03:44:52;;;;;;;5.50;2.35;;;;;;;;;;5046877;28;20115;-85
2023/08/28 03:47:18;;;;;;;4.43;1.92;;;;;;;;;;5040768;28;20029;-85
2023/08/28 03:49:44;;;;;;;4.55;2.17;;;;;;;;;;5042569;28;20064;-86
2023/08/28 03:52:10;;;;;;;5.20;2.42;;;;;;;;;;5026052;28;20033;-85
2023/08/28 03:54:35;;;;;;;3.15;2.00;;;;;;;;;;5042203;28;20036;-86
2023/08/28 03:57:01;;;;;;;5.10;1.88;;;;;;;;;;5041819;28;20112;-84
2023/08/28 03:59:27;;;;;;;4.43;2.20;;;;;;;;;;5037397;28;20607;-85
2023/08/28 04:01:54;;;;;;;3.15;1.85;;;;;;;;;;5038502;28;20071;-82
2023/08/28 04:04:20;;;;;;;3.42;1.63;;;;;;;;;;5037997;28;20024;-82
2023/08/28 04:06:46;;;;;;;6.88;2.70;;;;;;;;;;5043364;28;20027;-82
2023/08/28 04:09:12;;;;;;;3.95;2.60;;;;;;;;;;5036716;28;20391;-81
2023/08/28 04:11:38;;;;;;;4.00;2.30;;;;;;;;;;5034571;28;20479;-81
2023/08/28 04:14:04;;;;;;;5.15;2.45;;;;;;;;;;5035010;28;20075;-81
2023/08/28 04:16:30;;;;;;;5.78;2.58;;;;;;;;;;5034424;28;20017;-84
2023/08/28 04:18:56;;;;;;;5.30;2.25;;;;;;;;;;5038972;28;20108;-82
2023/08/28 04:21:22;;;;;;;6.63;2.60;;;;;;;;;;5039456;28;20031;-82
2023/08/28 04:23:48;;;;;;;5.43;2.88;;;;;;;;;;5037115;28;20096;-84
2023/08/28 04:26:14;;;;;;;3.42;2.17;;;;;;;;;;5037578;28;20381;-84
2023/08/28 04:28:40;;;;;;;4.25;2.35;;;;;;;;;;5030855;28;20029;-87
2023/08/28 04:31:09;;;;;;;3.25;2.20;;;;;;;;;;5042801;28;20033;-80
2023/08/28 04:33:35;;;;;;;6.93;2.78;;;14.50;99.90;;;;;;5041431;28;20086;-80
2023/08/28 04:36:00;;;;;;;4.82;2.35;;;;;;;;;;5043354;28;20548;-83
2023/08/28 04:38:26;;;;;;;5.05;1.92;;;;;;;;;;5042508;28;20025;-85
2023/08/28 04:40:52;;;;;;;7.97;3.08;;;;;;;;;;5039008;28;20036;-83
2023/08/28 04:43:18;;;;;;;9.25;2.75;;;;;;;;;;5038426;28;20071;-83
2023/08/28 04:45:44;;;;;;;6.20;2.90;;;;;;;;;;5039825;28;20048;-84
2023/08/28 04:48:10;;;;;;;4.57;2.28;;;;;;;;;;5044666;28;20079;-85
2023/08/28 04:50:36;;;;;;;4.20;2.33;;;;;;;;;;5040927;28;20079;-84
2023/08/28 04:53:02;;;;;;;6.80;2.67;;;;;;;;;;5043259;28;20032;-81
2023/08/28 04:55:28;;;;;;;5.50;3.35;;;;;;;;;;5037406;28;20025;-83
2023/08/28 04:57:54;;;;;;;4.25;2.45;;;;;;;;;;5036384;28;20124;-81
2023/08/28 05:00:20;;;;;;;9.38;3.17;;;;;;;;;;5020773;28;20025;-81
2023/08/28 05:02:46;;;;;;;6.72;2.20;;;;;;;;;;5038874;28;20106;-80
2023/08/28 05:05:12;;;;;;;5.45;1.92;;;;;;;;;;5035055;28;20081;-83
2023/08/28 05:07:38;;;;;;;5.20;2.10;;;;;;;;;;5032376;28;22722;-80
2023/08/28 05:10:04;;;;;;;4.10;2.35;;;;;;;;;;5035145;28;20124;-83
2023/08/28 05:12:30;;;;;;;3.35;2.15;;;;;;;;;;5036128;28;20078;-85
2023/08/28 05:14:56;;;;;;;4.07;2.25;;;14.10;99.90;;;;;;5046143;28;20033;-80
2023/08/28 05:17:22;;;;;;;4.72;2.80;;;;;;;;;;5035428;28;20029;-82
2023/08/28 05:19:48;;;;;;;16.08;6.35;;;;;;;;;;5040673;28;20671;-81
2023/08/28 05:22:14;;;;;;;4.78;2.25;;;;;;;;;;5042852;28;20071;-82
2023/08/28 05:24:40;;;;;;;3.05;1.70;;;;;;;;;;5045905;28;20028;-86
2023/08/28 05:27:06;;;;;;;5.60;2.58;;;;;;;;;;5039326;28;20021;-86
2023/08/28 05:29:32;;;;;;;6.53;4.50;;;;;;;;;;5040681;28;20094;-83
2023/08/28 05:31:58;;;;;;;5.20;3.15;;;;;;;;;;5037102;28;20029;-86
2023/08/28 05:34:24;;;;;;;6.43;3.10;;;;;;;;;;5034986;28;20029;-81
2023/08/28 05:36:49;;;;;;;6.43;1.92;;;;;;;;;;5034142;28;20108;-84
2023/08/28 05:39:15;;;;;;;4.22;2.28;;;;;;;;;;5036819;28;20037;-82
2023/08/28 05:41:41;;;;;;;8.25;3.20;;;;;;;;;;5042139;28;20048;-82
2023/08/28 05:44:07;;;;;;;5.18;2.88;;;;;;;;;;5035416;28;20028;-83
2023/08/28 05:46:33;;;;;;;9.60;3.20;;;;;;;;;;5037405;28;20056;-82
2023/08/28 05:48:59;;;;;;;6.55;3.40;;;;;;;;;;5045891;28;20080;-87
2023/08/28 05:51:25;;;;;;;5.10;3.33;;;;;;;;;;5042242;28;20037;-86
2023/08/28 05:53:51;;;;;;;5.22;3.00;;;;;;;;;;5022573;28;20039;-84
2023/08/28 05:56:17;;;;;;;4.18;2.47;;;;;;;;;;5035423;28;20041;-81
2023/08/28 05:58:43;;;;;;;6.18;2.35;;;;;;;;;;5041136;28;20567;-85
2023/08/28 06:01:09;;;;;;;3.78;1.88;;;;;;;;;;5041920;28;20091;-82
2023/08/28 06:03:35;;;;;;;5.57;2.80;;;;;;;;;;5036377;28;20094;-89
2023/08/28 06:06:01;;;;;;;10.90;2.95;;;;;;;;;;5041917;28;20056;-83
2023/08/28 06:08:27;;;;;;;7.47;2.55;;;;;;;;;;5043320;28;20064;-82
2023/08/28 06:10:53;;;;;;;5.05;2.58;;;;;;;;;;5044559;28;20973;-88
2023/08/28 06:13:19;;;;;;;5.82;3.05;;;;;;;;;;5043773;28;20052;-83
2023/08/28 06:15:45;;;;;;;6.53;3.20;;;;;;;;;;5044376;28;20570;-86
2023/08/28 06:18:11;;;;;;;5.70;2.30;;;;;;;;;;5046824;28;20544;-81
2023/08/28 06:20:37;;;;;;;5.05;3.08;;;;;;;;;;5046782;28;20376;-82
2023/08/28 06:23:02;;;;;;;5.22;3.08;;;14.50;99.90;;;;;;5046230;28;20386;-83
2023/08/28 06:25:28;;;;;;;3.65;2.10;;;;;;;;;;5043738;28;20490;-83
2023/08/28 06:27:54;;;;;;;7.65;2.72;;;;;;;;;;5041828;28;20633;-88
2023/08/28 06:30:20;;;;;;;6.35;2.17;;;;;;;;;;5040929;28;20075;-86
2023/08/28 06:32:46;;;;;;;3.78;2.13;;;;;;;;;;5037704;28;20036;-82
2023/08/28 06:35:12;;;;;;;4.30;1.65;;;;;;;;;;5039603;28;20540;-84
2023/08/28 06:37:38;;;;;;;8.43;2.47;;;;;;;;;;5039770;28;20064;-83
2023/08/28 06:40:04;;;;;;;5.10;2.75;;;;;;;;;;5037148;28;20104;-88
2023/08/28 06:42:30;;;;;;;7.97;1.50;;;;;;;;;;5045314;28;20017;-84
2023/08/28 06:44:56;;;;;;;13.13;3.63;;;;;;;;;;5035881;28;20044;-84
2023/08/28 06:47:22;;;;;;;10.07;3.08;;;;;;;;;;5038255;28;20037;-84
2023/08/28 06:49:48;;;;;;;18.33;6.28;;;;;;;;;;5043889;28;20021;-83
2023/08/28 06:52:14;;;;;;;10.77;7.07;;;;;;;;;;5022503;28;20033;-84
2023/08/28 06:54:40;;;;;;;21.63;10.55;;;;;;;;;;5043067;28;20577;-83
2023/08/28 06:57:06;;;;;;;36.20;20.08;;;;;;;;;;5043784;28;20500;-83
2023/08/28 06:59:32;;;;;;;5.85;4.47;;;;;;;;;;5040334;28;20029;-84
2023/08/28 07:01:58;;;;;;;3.92;2.40;;;;;;;;;;5039677;28;20082;-84
2023/08/28 07:04:24;;;;;;;4.35;2.28;;;;;;;;;;5044784;28;20075;-84
2023/08/28 07:06:51;;;;;;;3.33;2.00;;;;;;;;;;5037171;28;20029;-85
2023/08/28 07:09:17;;;;;;;7.53;2.88;;;;;;;;;;5037297;28;20098;-84
2023/08/28 07:11:43;;;;;;;4.05;1.67;;;;;;;;;;5044105;28;20032;-83
2023/08/28 07:14:11;;;;;;;7.38;3.20;;;16.10;99.90;;;;;;5043839;28;20040;-82
2023/08/28 07:16:36;;;;;;;3.38;2.00;;;;;;;;;;5038410;28;20554;-87
2023/08/28 07:19:03;;;;;;;6.50;3.38;;;;;;;;;;5040156;28;20047;-89
2023/08/28 07:21:29;;;;;;;3.72;1.92;;;;;;;;;;5041054;28;20033;-85
2023/08/28 07:23:56;;;;;;;9.15;4.05;;;;;;;;;;5042287;28;20029;-86
2023/08/28 07:26:22;;;;;;;12.07;5.45;;;;;;;;;;5050339;28;20045;-93
2023/08/28 07:28:48;;;;;;;5.78;2.40;;;;;;;;;;5065312;28;20036;-89
2023/08/28 07:31:15;;;;;;;15.60;6.10;;;;;;;;;;5034630;28;20183;-91
2023/08/28 07:33:40;;;;;;;8.77;3.92;;;;;;;;;;5023558;28;20100;-88
2023/08/28 07:36:07;;;;;;;3.55;1.38;;;;;;;;;;5040923;28;20155;-88
2023/08/28 07:38:33;;;;;;;2.00;1.05;;;;;;;;;;5041951;28;20025;-90
2023/08/28 07:40:59;;;;;;;3.35;1.45;;;;;;;;;;5045581;28;20029;-86
2023/08/28 07:43:25;;;;;;;1.85;1.00;;;;;;;;;;5049089;28;20032;-86
2023/08/28 07:45:51;;;;;;;2.42;1.25;;;;;;;;;;5048259;28;20029;-87
2023/08/28 07:48:17;;;;;;;1.33;0.85;;;;;;;;;;5049723;28;20052;-88
2023/08/28 07:50:45;;;;;;;2.75;1.40;;;;;;;;;;5047297;28;20418;-86
2023/08/28 07:53:11;;;;;;;3.15;1.55;;;;;;;;;;5044211;28;20128;-89
2023/08/28 07:55:37;;;;;;;2.17;1.42;;;;;;;;;;5050089;28;20025;-90
2023/08/28 07:58:04;;;;;;;4.57;2.20;;;;;;;;;;5040219;28;20029;-88
2023/08/28 08:00:34;;;;;;;5.25;2.17;;;;;;;;;;5041517;28;20036;-87
2023/08/28 08:03:00;;;;;;;3.78;2.03;;;;;;;;;;5039969;28;20584;-89
2023/08/28 08:05:26;;;;;;;7.78;3.70;;;;;;;;;;5047402;28;20032;-86
2023/08/28 08:07:53;;;;;;;3.45;1.75;;;;;;;;;;5053632;28;20037;-88
2023/08/28 08:10:19;;;;;;;2.92;1.20;;;;;;;;;;5019243;28;20052;-90
2023/08/28 08:12:45;;;;;;;4.82;2.00;;;;;;;;;;5026039;28;20033;-88
2023/08/28 08:15:11;;;;;;;2.80;1.35;;;;;;;;;;5048935;28;20103;-88
2023/08/28 08:17:37;;;;;;;3.33;1.55;;;;;;;;;;5044700;28;20438;-86
2023/08/28 08:20:10;;;;;;;4.43;1.80;;;;;;;;;;5037880;28;20058;-90
2023/08/28 08:22:36;;;;;;;;;;;;;;;;;;5047523;28;20029;-90
2023/08/28 08:25:02;;;;;;;7.88;1.40;;;;;;;;;;5040896;28;19951;-89
2023/08/28 08:27:28;;;;;;;3.55;0.90;;;;;;;;;;5043915;28;20037;-86
2023/08/28 08:29:54;;;;;;;3.10;1.58;;;;;;;;;;5044520;28;20035;-86
2023/08/28 08:32:20;;;;;;;7.20;1.65;;;;;;;;;;5043558;28;20033;-86
2023/08/28 08:34:46;;;;;;;2.28;0.77;;;;;;;;;;5029345;28;20100;-87
2023/08/28 08:37:12;;;;;;;1.25;0.80;;;;;;;;;;5036754;28;20039;-86
2023/08/28 08:39:38;;;;;;;1.80;0.90;;;;;;;;;;5056528;28;20033;-89
2023/08/28 08:42:04;;;;;;;1.13;0.70;;;;;;;;;;5047233;28;20037;-87
2023/08/28 08:44:30;;;;;;;4.75;0.95;;;;;;;;;;5045936;28;20506;-84
2023/08/28 08:46:56;;;;;;;5.35;2.05;;;17.80;99.90;;;;;;5038521;28;20040;-85
2023/08/28 08:49:26;;;;;;;8.43;2.45;;;18.00;99.90;;;;;;5039417;28;20037;-86
2023/08/28 08:51:55;;;;;;;9.57;3.88;;;;;;;;;;5042946;28;20041;-85
2023/08/28 08:54:23;;;;;;;9.63;2.60;;;;;;;;;;5034460;28;20036;-85
2023/08/28 08:56:53;;;;;;;7.05;2.15;;;19.00;99.90;;;;;;5041515;28;21215;-86
2023/08/28 08:59:19;;;;;;;1.95;0.90;;;;;;;;;;5043883;28;20044;-86
2023/08/28 09:01:45;;;;;;;6.00;1.35;;;;;;;;;;5037995;28;20040;-87
2023/08/28 09:04:12;;;;;;;4.65;1.58;;;;;;;;;;5040888;28;20033;-86
2023/08/28 09:06:38;;;;;;;3.90;1.08;;;;;;;;;;5038464;28;20614;-86
2023/08/28 09:09:05;;;;;;;10.35;2.97;;;;;;;;;;5032410;28;20029;-86
2023/08/28 09:11:32;;;;;;;7.30;2.65;;;;;;;;;;5036718;28;20695;-87
2023/08/28 09:13:57;;;;;;;7.68;3.13;;;;;;;;;;5039009;28;20055;-84
2023/08/28 09:16:23;;;;;;;5.65;2.17;;;;;;;;;;5042440;28;20511;-85
2023/08/28 09:18:50;;;;;;;4.60;0.80;;;;;;;;;;5035780;28;20025;-84
2023/08/28 09:21:16;;;;;;;2.00;1.05;;;;;;;;;;5042236;28;20029;-88
2023/08/28 09:23:43;;;;;;;4.13;0.93;;;;;;;;;;5035804;28;20040;-86
2023/08/28 09:26:12;;;;;;;3.58;0.95;;;18.40;99.90;;;;;;5034553;28;20795;-84
2023/08/28 09:28:38;;;;;;;4.32;0.90;;;;;;;;;;5037819;28;20037;-86
2023/08/28 09:31:05;;;;;;;7.38;2.25;;;;;;;;;;5041016;28;20025;-87
2023/08/28 09:33:46;;;;;;;14.40;4.60;;;18.00;99.90;;;;;;5038445;28;20026;-85
2023/08/28 09:36:16;;;;;;;8.13;3.13;;;;;;;;;;5022496;28;20049;-86
2023/08/28 09:38:42;;;;;;;13.85;4.97;;;;;;;;;;5036852;28;20159;-87
2023/08/28 09:41:09;;;;;;;7.03;2.25;;;;;;;;;;5043735;28;20033;-86
2023/08/28 09:43:36;;;;;;;6.50;2.05;;;;;;;;;;5037600;28;22650;-85
2023/08/28 09:46:01;;;;;;;4.03;1.45;;;;;;;;;;5041097;28;20514;-85
2023/08/28 09:48:29;;;;;;;7.10;1.05;;;;;;;;;;5036243;28;20052;-85
2023/08/28 09:50:55;;;;;;;1.90;0.95;;;;;;;;;;5037710;28;20037;-85
2023/08/28 09:53:21;;;;;;;5.43;1.30;;;;;;;;;;5018860;28;20032;-83
2023/08/28 09:55:50;;;;;;;3.38;1.40;;;;;;;;;;5039964;28;20116;-87
2023/08/28 09:58:16;;;;;;;7.47;2.88;;;;;;;;;;5036775;28;20043;-86
2023/08/28 10:00:42;;;;;;;11.13;3.50;;;;;;;;;;5035349;28;20025;-85
2023/08/28 10:03:09;;;;;;;11.75;3.78;;;;;;;;;;5040994;28;20269;-86
2023/08/28 10:05:39;;;;;;;17.20;4.82;;;;;;;;;;5035957;28;20679;-85
2023/08/28 10:08:13;;;;;;;10.45;2.60;;;;;;;;;;5037598;28;20036;-88
2023/08/28 10:10:40;;;;;;;18.83;6.63;;;;;;;;;;5037754;28;20032;-84
2023/08/28 10:13:08;;;;;;;28.55;8.02;;;;;;;;;;5039488;28;20025;-87
2023/08/28 10:15:39;;;;;;;7.80;2.67;;;;;;;;;;5039413;28;20033;-87
2023/08/28 10:18:19;;;;;;;4.45;1.38;;;18.80;99.90;;;;;;5031969;28;20120;-88
2023/08/28 10:20:46;;;;;;;4.38;0.88;;;;;;;;;;5032874;28;20048;-84
2023/08/28 10:23:13;;;;;;;3.30;0.90;;;;;;;;;;5039120;28;20103;-83
2023/08/28 10:25:42;;;;;;;13.63;4.75;;;20.20;99.90;;;;;;5024671;28;20036;-85
2023/08/28 10:28:08;;;;;;;4.07;2.10;;;;;;;;;;5034072;28;20977;-84
2023/08/28 10:30:35;;;;;;;10.88;3.40;;;;;;;;;;5038135;28;20033;-88
2023/08/28 10:33:01;;;;;;;6.15;1.67;;;;;;;;;;5027330;28;20109;-86
2023/08/28 10:35:28;;;;;;;3.05;1.50;;;19.20;99.90;;;;;;5045851;28;20033;-87
2023/08/28 10:37:55;;;;;;;4.35;2.28;;;19.30;99.90;;;;;;5045944;28;20058;-83
2023/08/28 10:40:21;;;;;;;6.43;1.20;;;;;;;;;;5051479;28;20032;-85
2023/08/28 10:42:47;;;;;;;1.30;0.70;;;;;;;;;;5047378;28;20033;-87
2023/08/28 10:45:13;;;;;;;3.90;0.77;;;;;;;;;;5044647;28;20112;-84
2023/08/28 10:47:39;;;;;;;3.20;0.77;;;;;;;;;;5047662;28;20025;-87
2023/08/28 10:50:06;;;;;;;4.97;1.25;;;;;;;;;;5041081;28;20039;-85
2023/08/28 10:52:32;;;;;;;1.70;0.55;;;;;;;;;;5048101;28;20036;-86
2023/08/28 10:55:03;;;;;;;1.25;0.85;;;;;;;;;;5030057;28;20025;-84
2023/08/28 10:57:29;;;;;;;1.60;0.52;;;;;;;;;;5041955;28;20071;-85
2023/08/28 10:59:55;;;;;;;2.42;0.80;;;;;;;;;;5045219;28;20117;-85
2023/08/28 11:02:21;;;;;;;1.40;0.70;;;;;;;;;;5047461;28;20116;-86
2023/08/28 11:04:48;;;;;;;1.80;0.63;;;;;;;;;;5046391;28;20040;-86
2023/08/28 11:07:34;;;;;;;1.33;0.68;;;;;;;;;;5043105;28;20037;-84
2023/08/28 11:10:17;;;;;;;1.88;1.00;;;21.00;99.90;;;;;;5034738;28;20087;-83
2023/08/28 11:13:18;;;;;;;1.65;0.68;;;20.90;99.90;;;;;;5039665;28;20329;-85
2023/08/28 11:15:44;;;;;;;5.68;1.00;;;;;;;;;;5049527;28;20029;-85
2023/08/28 11:18:29;;;;;;;1.08;0.50;;;;;;;;;;5045446;28;20048;-84
2023/08/28 11:20:56;;;;;;;1.77;0.60;;;;;;;;;;5041945;28;20053;-85
2023/08/28 11:23:35;;;;;;;1.55;0.55;;;;;;;;;;5039291;28;20145;-84
2023/08/28 11:26:03;;;;;;;1.02;0.30;;;;;;;;;;5024121;28;20437;-84
2023/08/28 11:28:32;;;;;;;7.00;1.30;;;20.30;99.90;;;;;;5011504;28;20116;-87
2023/08/28 11:31:00;;;;;;;2.38;0.80;;;20.70;99.90;;;;;;5040102;28;20032;-84
2023/08/28 11:33:27;;;;;;;1.60;0.80;;;;;;;;;;5042529;28;20037;-87
2023/08/28 11:36:03;;;;;;;3.70;0.60;;;21.10;99.90;;;;;;5045723;28;20164;-83
2023/08/28 11:38:29;;;;;;;2.13;0.73;;;;;;;;;;5044827;28;20056;-86
2023/08/28 11:40:58;;;;;;;1.20;0.43;;;21.10;99.90;;;;;;5052683;28;20127;-81
2023/08/28 11:43:24;;;;;;;4.43;0.50;;;;;;;;;;5061106;28;20024;-87
2023/08/28 11:45:56;;;;;;;2.63;1.15;;;21.20;99.90;;;;;;5059794;28;20044;-84
2023/08/28 11:48:23;;;;;;;1.10;0.52;;;;;;;;;;5045463;28;20032;-88
2023/08/28 11:50:50;;;;;;;3.47;1.02;;;;;;;;;;5039501;28;20040;-85
2023/08/28 11:53:16;;;;;;;3.00;1.00;;;;;;;;;;5040359;28;20041;-87
2023/08/28 11:55:41;;;;;;;1.63;0.50;;;20.30;99.90;;;;;;5043129;28;20668;-85
2023/08/28 11:58:07;;;;;;;2.30;1.17;;;;;;;;;;5042159;28;20377;-86
2023/08/28 12:00:33;;;;;;;7.18;1.10;;;;;;;;;;5047862;28;20487;-86
2023/08/28 12:02:59;;;;;;;4.10;1.33;;;;;;;;;;5035566;28;20059;-86
2023/08/28 12:05:25;;;;;;;5.10;2.03;;;;;;;;;;5028739;28;20987;-84
2023/08/28 12:07:52;;;;;;;5.88;1.05;;;;;;;;;;5028928;28;20033;-89
2023/08/28 12:10:19;;;;;;;1.80;0.88;;;;;;;;;;5029371;28;20032;-86
2023/08/28 12:12:46;;;;;;;2.10;0.73;;;;;;;;;;5036360;28;20143;-90
2023/08/28 12:15:12;;;;;;;1.65;0.50;;;;;;;;;;5028417;28;20036;-86
2023/08/28 12:17:38;;;;;;;1.27;0.60;;;;;;;;;;5035922;28;20032;-84
2023/08/28 12:20:07;;;;;;;4.38;0.93;;;;;;;;;;5035695;28;20670;-85
2023/08/28 12:22:34;;;;;;;1.75;0.50;;;;;;;;;;5037826;28;20103;-84
2023/08/28 12:25:00;;;;;;;1.50;0.60;;;;;;;;;;5031642;28;20120;-82
2023/08/28 12:27:27;;;;;;;3.38;0.68;;;;;;;;;;5037171;28;20033;-82
2023/08/28 12:29:56;;;;;;;1.27;0.57;;;;;;;;;;5037687;28;20028;-85
2023/08/28 12:32:23;;;;;;;1.58;0.75;;;;;;;;;;5039625;28;20049;-86
2023/08/28 12:34:49;;;;;;;2.97;1.20;;;;;;;;;;5038791;28;20379;-83
2023/08/28 12:37:16;;;;;;;2.05;0.50;;;20.50;99.90;;;;;;5036150;28;20136;-87
2023/08/28 12:39:46;;;;;;;4.57;1.50;;;;;;;;;;5035279;28;20021;-83
2023/08/28 12:42:14;;;;;;;3.53;1.10;;;;;;;;;;5042681;28;20064;-83
2023/08/28 12:44:42;;;;;;;0.65;0.50;;;;;;;;;;5036829;28;20025;-87
2023/08/28 12:47:08;;;;;;;2.25;0.30;;;;;;;;;;5030684;28;20107;-84
2023/08/28 12:49:35;;;;;;;1.85;0.60;;;;;;;;;;5031612;28;20025;-85
2023/08/28 12:52:01;;;;;;;0.70;0.40;;;;;;;;;;5032021;28;20052;-86
2023/08/28 12:54:27;;;;;;;3.40;0.40;;;;;;;;;;5033814;28;20175;-85
2023/08/28 12:56:53;;;;;;;1.23;0.55;;;;;;;;;;5044594;28;20088;-87
2023/08/28 12:59:22;;;;;;;1.50;0.60;;;;;;;;;;5046128;28;20102;-85
2023/08/28 13:01:48;;;;;;;0.63;0.40;;;;;;;;;;5044059;28;20029;-87
2023/08/28 13:04:14;;;;;;;2.55;0.60;;;;;;;;;;5036066;28;20043;-86
2023/08/28 13:06:40;;;;;;;3.20;1.27;;;;;;;;;;5036451;28;20029;-84
2023/08/28 13:09:07;;;;;;;1.27;0.40;;;;;;;;;;5037136;28;20124;-86
2023/08/28 13:11:33;;;;;;;1.40;0.63;;;;;;;;;;5030974;28;20775;-84
2023/08/28 13:14:00;;;;;;;6.43;0.45;;;;;;;;;;5020392;28;20021;-86
2023/08/28 13:16:26;;;;;;;1.73;0.68;;;;;;;;;;5015317;28;20170;-85
2023/08/28 13:18:53;;;;;;;3.03;0.40;;;;;;;;;;5013556;28;20032;-84
2023/08/28 13:21:19;;;;;;;1.10;0.50;;;;;;;;;;5006936;28;20037;-88
2023/08/28 13:23:45;;;;;;;1.60;0.40;;;;;;;;;;5010739;28;20029;-86
2023/08/28 13:26:11;;;;;;;0.70;0.40;;;;;;;;;;5019818;28;20542;-85
2023/08/28 13:28:37;;;;;;;2.42;0.77;;;;;;;;;;5010022;28;20025;-86
2023/08/28 13:31:03;;;;;;;0.65;0.20;;;;;;;;;;5018789;28;20182;-85
2023/08/28 13:33:29;;;;;;;1.48;0.50;;;;;;;;;;5011582;28;20025;-89
2023/08/28 13:35:56;;;;;;;1.35;0.50;;;;;;;;;;5014431;28;20062;-90
2023/08/28 13:38:22;;;;;;;4.13;0.30;;;;;;;;;;5017243;28;20860;-89
2023/08/28 13:40:48;;;;;;;1.63;0.57;;;;;;;;;;5015406;28;20025;-87
2023/08/28 13:43:15;;;;;;;0.70;0.30;;;;;;;;;;5030442;28;20029;-87
2023/08/28 13:45:41;;;;;;;0.57;0.30;;;;;;;;;;5024769;28;20021;-86
2023/08/28 13:48:07;;;;;;;1.20;0.38;;;;;;;;;;5039841;28;20028;-88
2023/08/28 13:50:33;;;;;;;0.65;0.25;;;;;;;;;;5048157;28;20195;-86
2023/08/28 13:52:59;;;;;;;2.28;0.90;;;;;;;;;;5046569;28;20508;-86
2023/08/28 13:55:24;;;;;;;0.77;0.17;;;;;;;;;;5044872;28;20017;-87
2023/08/28 13:57:50;;;;;;;0.40;0.30;;;;;;;;;;5037412;28;20059;-87
2023/08/28 14:00:17;;;;;;;1.58;0.30;;;18.70;99.90;;;;;;5036595;28;20087;-86
2023/08/28 14:02:43;;;;;;;0.57;0.32;;;18.30;99.90;;;;;;5028598;28;20034;-85
2023/08/28 14:05:13;;;;;;;1.08;0.50;;;19.30;99.90;;;;;;5034732;28;20045;-87
2023/08/28 14:07:39;;;;;;;1.80;0.20;;;18.20;99.90;;;;;;5045905;28;20021;-86
2023/08/28 14:10:06;;;;;;;0.57;0.40;;;;;;;;;;5056504;28;20434;-86
2023/08/28 14:12:32;;;;;;;1.50;0.40;;;;;;;;;;5047603;28;20130;-88
2023/08/28 14:15:00;;;;;;;0.40;0.28;;;19.20;99.90;;;;;;5049357;28;20356;-86
2023/08/28 14:17:26;;;;;;;1.58;0.50;;;;;;;;;;5048979;28;20028;-84
2023/08/28 14:19:52;;;;;;;1.80;0.60;;;;;;;;;;5051939;28;20111;-85
2023/08/28 14:22:18;;;;;;;1.40;0.40;;;;;;;;;;5046958;28;20138;-83
2023/08/28 14:24:44;;;;;;;1.17;0.55;;;;;;;;;;5046996;28;20025;-85
2023/08/28 14:27:10;;;;;;;0.63;0.35;;;;;;;;;;5045710;28;20079;-83
2023/08/28 14:29:36;;;;;;;0.43;0.20;;;;;;;;;;5026725;28;20029;-88